Погода Брызгельна неделю

Подляское воеводство, Польша

18 - 24 июля
  • 18июля
    Сегодня
    +12°
    +25°
    Небольшая облачность
    ВремяПогодаТемператураВлажностьДавлениеВетер, м/сВероятность осадков
    02:00Облачно с прояснениями+17°C90 %749 мм1.1 м/с2 %
    05:00Практически безоблачно+16°C93 %749 мм1.3 м/с12 %
    08:00Практически безоблачно+20°C76 %750 мм2.5 м/с27 %
    11:00Ясно и безоблачно+23°C55 %750 мм3.3 м/с34 %
    14:00Небольшая облачность+24°C46 %750 мм3.7 м/с32 %
    17:00Практически безоблачно+23°C48 %750 мм4.0 м/с19 %
    20:00Ясно и безоблачно+21°C57 %750 мм2.6 м/с2 %
    23:00Небольшая облачность+16°C73 %750 мм2.0 м/с2 %
  • 19июля
    Пятница
    +11°
    +25°
    Практически безоблачно
    ВремяПогодаТемператураВлажностьДавлениеВетер, м/сВероятность осадков
    02:00Ясно и безоблачно+13°C87 %750 мм1.9 м/с2 %
    05:00Ясно и безоблачно+13°C93 %750 мм2.0 м/с2 %
    08:00Небольшая облачность+18°C69 %750 мм2.9 м/с2 %
    11:00Небольшая облачность+22°C49 %750 мм3.9 м/с2 %
    14:00Практически безоблачно+24°C43 %749 мм3.7 м/с2 %
    17:00Ясно и безоблачно+23°C44 %748 мм4.0 м/с2 %
    20:00Ясно и безоблачно+21°C55 %748 мм2.5 м/с2 %
    23:00Ясно и безоблачно+15°C79 %748 мм1.5 м/с2 %
  • 20июля
    Суббота
    +13°
    +26°
    Небольшая облачность
    ВремяПогодаТемператураВлажностьДавлениеВетер, м/сВероятность осадков
    02:00Ясно и безоблачно+13°C94 %747 мм1.2 м/с2 %
    05:00Ясно и безоблачно+11°C96 %747 мм1.4 м/с2 %
    08:00Небольшая облачность+17°C74 %746 мм1.9 м/с2 %
    11:00Облачно с прояснениями+21°C51 %746 мм2.4 м/с2 %
    14:00Небольшая облачность+24°C43 %745 мм2.3 м/с2 %
    17:00Облачно с прояснениями+25°C36 %744 мм2.7 м/с3 %
    20:00Облачно с прояснениями+23°C48 %744 мм2.0 м/с2 %
    23:00Ясно и безоблачно+17°C72 %744 мм1.5 м/с2 %
  • 21июля
    Воскресенье
    +14°
    +27°
    Небольшая облачность
    ВремяПогодаТемператураВлажностьДавлениеВетер, м/сВероятность осадков
    02:00Небольшая облачность+15°C89 %743 мм0.8 м/с2 %
    05:00Ясно и безоблачно+14°C94 %743 мм1.3 м/с2 %
    08:00Ясно и безоблачно+20°C67 %743 мм1.2 м/с2 %
    11:00Ясно и безоблачно+24°C48 %743 мм2.1 м/с3 %
    14:00Небольшая облачность+27°C36 %742 мм2.3 м/с5 %
    17:00Облачно с прояснениями+26°C34 %741 мм2.8 м/с3 %
    20:00Ясно и безоблачно+24°C46 %742 мм1.6 м/с2 %
    23:00Ясно и безоблачно+17°C63 %742 мм1.3 м/с2 %
  • 22июля
    Понедельник
    +13°
    +29°
    Практически безоблачно
    ВремяПогодаТемператураВлажностьДавлениеВетер, м/сВероятность осадков
    02:00Ясно и безоблачно+16°C74 %742 мм1.0 м/с2 %
    05:00Ясно и безоблачно+15°C79 %741 мм1.3 м/с2 %
    08:00Ясно и безоблачно+22°C49 %742 мм1.6 м/с2 %
    11:00Ясно и безоблачно+26°C36 %742 мм1.9 м/с2 %
    14:00Практически безоблачно+29°C30 %741 мм1.8 м/с5 %
    17:00Ясно и безоблачно+28°C27 %741 мм2.8 м/с10 %
    20:00Облачно с прояснениями+26°C40 %742 мм1.8 м/с18 %
    23:00Облачно с прояснениями+20°C45 %741 мм1.3 м/с18 %
Мы используем cookies
Соглашаюсь